Terminal Aerodrome Forecast
Issued by NWS

Home | Current Version | Previous Version | Text Only | Print | Product List | Glossary Off
Versions: 1 2 3 4 5 6 7 8 9 10 11 12 13 14 15 16 17 18 19

095
FTUS43 KICT 261601 AAA
TAFRSL
TAF AMD
KRSL 261601Z 2616/2712 17015G22KT P6SM SCT100 BKN250
      TEMPO 2616/2618 -TSRA BKN090CB
     FM262000 31012KT P6SM VCTS BKN080CB
     FM270000 36014G20KT P6SM VCSH BKN080=

USA.gov is the U.S. government's official web portal to all federal, state and local government web resources and services.